createdAt,value
2022-11-16T00:00:53.864Z,11.54
2022-11-16T00:01:53.829Z,11.48
2022-11-16T00:02:53.662Z,11.51
2022-11-16T00:03:53.645Z,11.52
2022-11-16T00:04:53.645Z,11.54
2022-11-16T00:05:53.670Z,11.49
2022-11-16T00:06:53.658Z,11.48
2022-11-16T00:07:53.822Z,11.45
2022-11-16T00:08:53.838Z,11.46
2022-11-16T00:09:53.892Z,11.43
2022-11-16T00:10:53.891Z,11.43
2022-11-16T00:11:53.890Z,11.43
2022-11-16T00:12:53.856Z,11.41
2022-11-16T00:13:53.651Z,11.40
2022-11-16T00:14:53.659Z,11.45
2022-11-16T00:15:53.668Z,11.43
2022-11-16T00:16:53.555Z,11.41
2022-11-16T00:17:53.542Z,11.34
2022-11-16T00:18:53.608Z,11.37
2022-11-16T00:19:53.530Z,11.31
2022-11-16T00:20:53.699Z,11.37
2022-11-16T00:21:53.701Z,11.31
2022-11-16T00:22:54.962Z,11.31
2022-11-16T00:23:53.720Z,11.30
2022-11-16T00:24:53.720Z,11.33
2022-11-16T00:25:53.737Z,11.30
2022-11-16T00:26:53.739Z,11.31
2022-11-16T00:27:53.548Z,11.30
2022-11-16T00:28:53.749Z,11.28
2022-11-16T00:29:53.658Z,11.25
2022-11-16T00:30:53.560Z,11.31
2022-11-16T00:31:53.617Z,11.28
2022-11-16T00:32:53.781Z,11.25
2022-11-16T00:33:53.787Z,11.23
2022-11-16T00:34:55.070Z,11.25
2022-11-16T00:35:53.420Z,11.23
2022-11-16T00:36:53.426Z,11.25
2022-11-16T00:37:53.421Z,11.30
2022-11-16T00:38:53.417Z,11.28
2022-11-16T00:39:53.397Z,11.31
2022-11-16T00:40:53.388Z,11.28
2022-11-16T00:41:53.398Z,11.30
2022-11-16T00:42:53.425Z,11.28
2022-11-16T00:43:53.457Z,11.28
2022-11-16T00:44:53.478Z,11.22
2022-11-16T00:45:53.476Z,11.23
2022-11-16T00:46:53.397Z,11.23
2022-11-16T00:47:57.776Z,11.22
2022-11-16T00:48:53.499Z,11.22
2022-11-16T00:49:53.505Z,11.19
2022-11-16T00:50:53.349Z,11.20
2022-11-16T00:51:53.525Z,11.18
2022-11-16T00:52:53.345Z,11.16
2022-11-16T00:53:53.314Z,11.15
2022-11-16T00:54:53.325Z,11.16
2022-11-16T00:55:53.496Z,11.12
2022-11-16T00:56:53.355Z,11.08
2022-11-16T00:57:53.366Z,11.08
2022-11-16T00:58:53.344Z,11.13
2022-11-16T00:59:53.576Z,11.05
2022-11-16T01:00:53.638Z,11.08
2022-11-16T01:01:53.617Z,11.05
2022-11-16T01:02:53.373Z,11.09
2022-11-16T01:03:53.602Z,11.08
2022-11-16T01:04:53.373Z,11.09
2022-11-16T01:05:53.723Z,11.08
2022-11-16T01:06:53.759Z,11.05
2022-11-16T01:07:53.619Z,11.05
2022-11-16T01:08:53.757Z,11.05
2022-11-16T01:09:53.622Z,11.11
2022-11-16T01:10:53.272Z,11.05
2022-11-16T01:11:53.231Z,11.01
2022-11-16T01:12:53.795Z,11.04
2022-11-16T01:13:53.652Z,11.04
2022-11-16T01:14:53.835Z,11.01
2022-11-16T01:15:53.281Z,11.03
2022-11-16T01:16:53.468Z,11.04
2022-11-16T01:17:53.271Z,11.03
2022-11-16T01:18:53.684Z,11.05
2022-11-16T01:19:53.491Z,11.03
2022-11-16T01:20:53.109Z,11.03
2022-11-16T01:21:53.152Z,11.01
2022-11-16T01:22:53.109Z,11.00
2022-11-16T01:23:53.112Z,11.01
2022-11-16T01:24:53.152Z,11.00
2022-11-16T01:25:53.141Z,10.97
2022-11-16T01:26:53.129Z,10.98
2022-11-16T01:27:53.287Z,11.01
2022-11-16T01:28:53.288Z,11.03
2022-11-16T01:29:53.378Z,11.03
2022-11-16T01:30:53.409Z,11.03
2022-11-16T01:31:53.376Z,11.05
2022-11-16T01:32:53.170Z,11.03
2022-11-16T01:33:53.178Z,11.03
2022-11-16T01:34:53.007Z,11.08
2022-11-16T01:35:53.189Z,11.05
2022-11-16T01:36:53.037Z,11.05
2022-11-16T01:37:53.210Z,11.08
2022-11-16T01:38:53.418Z,11.05
2022-11-16T01:39:53.626Z,11.08
2022-11-16T01:40:53.636Z,11.05
2022-11-16T01:41:53.646Z,11.03
2022-11-16T01:42:53.077Z,11.01
2022-11-16T01:43:52.975Z,10.97
2022-11-16T01:44:53.385Z,10.97
2022-11-16T01:45:53.056Z,10.95
2022-11-16T01:46:53.267Z,10.97
2022-11-16T01:47:53.427Z,10.95
2022-11-16T01:48:53.102Z,10.98
2022-11-16T01:49:53.411Z,11.00
2022-11-16T01:50:53.817Z,11.00
2022-11-16T01:51:52.936Z,11.00
2022-11-16T01:52:53.104Z,11.03
2022-11-16T01:53:53.115Z,11.01
2022-11-16T01:54:53.025Z,11.01
2022-11-16T01:55:52.934Z,11.01
2022-11-16T01:56:52.935Z,11.01
2022-11-16T01:57:52.962Z,11.00
2022-11-16T01:58:52.965Z,10.98
2022-11-16T01:59:52.974Z,11.03
2022-11-16T02:00:53.008Z,11.01
2022-11-16T02:01:52.832Z,10.98
2022-11-16T02:04:18.977Z,11.01
2022-11-16T02:05:18.985Z,10.97
2022-11-16T02:06:19.006Z,11.00
2022-11-16T02:07:19.149Z,11.01
2022-11-16T02:08:19.116Z,11.04
2022-11-16T02:09:20.205Z,11.03
2022-11-16T02:10:19.126Z,11.03
2022-11-16T02:11:18.764Z,11.05
2022-11-16T02:12:19.239Z,11.03
2022-11-16T02:13:18.756Z,11.01
2022-11-16T02:14:18.706Z,11.03
2022-11-16T02:15:19.165Z,11.04
2022-11-16T02:16:18.704Z,11.03
2022-11-16T02:17:18.716Z,11.00
2022-11-16T02:18:18.733Z,11.01
2022-11-16T02:19:18.685Z,10.95
2022-11-16T02:20:18.898Z,10.98
2022-11-16T02:21:18.684Z,10.98
2022-11-16T02:22:19.103Z,11.00
2022-11-16T02:23:19.003Z,11.00
2022-11-16T02:24:18.912Z,10.97
2022-11-16T02:25:19.325Z,10.93
2022-11-16T02:26:18.752Z,10.93
2022-11-16T02:27:18.842Z,10.91
2022-11-16T02:28:18.656Z,10.90
2022-11-16T02:29:18.625Z,10.86
2022-11-16T02:30:19.083Z,10.93
2022-11-16T02:31:19.062Z,10.95
2022-11-16T02:32:19.073Z,10.91
2022-11-16T02:33:18.762Z,10.91
2022-11-16T02:34:18.572Z,10.91
2022-11-16T02:35:18.692Z,10.87
2022-11-16T02:36:18.587Z,10.90
2022-11-16T02:37:18.701Z,10.85
2022-11-16T02:38:18.700Z,10.83
2022-11-16T02:39:18.810Z,10.86
2022-11-16T02:40:18.609Z,10.87
2022-11-16T02:41:18.546Z,10.87
2022-11-16T02:42:18.530Z,10.90
2022-11-16T02:43:18.629Z,10.87
2022-11-16T02:44:18.751Z,10.90
2022-11-16T02:45:18.538Z,10.93
2022-11-16T02:46:18.547Z,10.91
2022-11-16T02:47:18.547Z,10.94
2022-11-16T02:48:18.868Z,10.95
2022-11-16T02:49:18.559Z,10.95
2022-11-16T02:50:18.468Z,10.94
2022-11-16T02:51:18.899Z,10.95
2022-11-16T02:52:18.486Z,10.93
2022-11-16T02:53:18.707Z,10.94
2022-11-16T02:54:18.919Z,10.93
2022-11-16T02:55:18.506Z,10.91
2022-11-16T02:56:19.026Z,10.93
2022-11-16T02:57:18.436Z,10.94
2022-11-16T02:58:18.444Z,10.91
2022-11-16T02:59:19.155Z,10.95
2022-11-16T03:00:18.546Z,11.00
2022-11-16T03:01:19.393Z,11.01
2022-11-16T03:02:18.387Z,11.04
2022-11-16T03:03:18.614Z,11.05
2022-11-16T03:04:18.395Z,11.08
2022-11-16T03:05:18.672Z,11.08
2022-11-16T03:06:19.615Z,11.13
2022-11-16T03:07:18.978Z,11.18
2022-11-16T03:08:19.004Z,11.23
2022-11-16T03:09:18.573Z,11.25
2022-11-16T03:10:18.864Z,11.30
2022-11-16T03:11:18.704Z,11.38
2022-11-16T03:12:18.324Z,11.40
2022-11-16T03:13:18.347Z,11.45
2022-11-16T03:14:18.326Z,11.45
2022-11-16T03:15:18.441Z,11.43
2022-11-16T03:16:18.333Z,11.48
2022-11-16T03:17:18.587Z,11.45
2022-11-16T03:18:18.364Z,11.46
2022-11-16T03:19:18.580Z,11.46
2022-11-16T03:20:18.264Z,11.45
2022-11-16T03:21:18.250Z,11.43
2022-11-16T03:22:18.362Z,11.43
2022-11-16T03:23:18.252Z,11.40
2022-11-16T03:24:18.501Z,11.43
2022-11-16T03:25:18.509Z,11.40
2022-11-16T03:26:18.218Z,11.40
2022-11-16T03:27:18.230Z,11.43
2022-11-16T03:28:18.612Z,11.45
2022-11-16T03:29:18.419Z,11.41
2022-11-16T03:30:23.172Z,11.45
2022-11-16T03:31:18.760Z,11.45
2022-11-16T03:32:18.182Z,11.48
2022-11-16T03:33:18.205Z,11.48
2022-11-16T03:34:18.181Z,11.45
2022-11-16T03:35:19.609Z,11.43
2022-11-16T03:36:18.171Z,11.41
2022-11-16T03:37:18.215Z,11.43
2022-11-16T03:38:18.190Z,11.45
2022-11-16T03:39:18.287Z,11.43
2022-11-16T03:40:18.281Z,11.43
2022-11-16T03:41:18.300Z,11.45
2022-11-16T03:42:18.109Z,11.46
2022-11-16T03:43:18.298Z,11.45
2022-11-16T03:44:18.257Z,11.41
2022-11-16T03:45:18.317Z,11.43
2022-11-16T03:46:18.109Z,11.41
2022-11-16T03:47:18.119Z,11.48
2022-11-16T03:48:18.057Z,11.46
2022-11-16T03:49:18.085Z,11.48
2022-11-16T03:50:18.475Z,11.45
2022-11-16T03:51:18.493Z,11.45
2022-11-16T03:52:18.147Z,11.48
2022-11-16T03:53:18.496Z,11.43
2022-11-16T03:54:18.526Z,11.48
2022-11-16T03:55:18.015Z,11.48
2022-11-16T03:56:18.007Z,11.48
2022-11-16T03:57:18.006Z,11.48
2022-11-16T03:58:17.995Z,11.45
2022-11-16T03:59:18.511Z,11.48
2022-11-16T04:00:18.004Z,11.46
2022-11-16T04:01:18.030Z,11.43
2022-11-16T04:02:18.146Z,11.45
2022-11-16T04:03:18.156Z,11.46
2022-11-16T04:04:17.975Z,11.43
2022-11-16T04:05:18.165Z,11.46
2022-11-16T04:06:17.973Z,11.46
2022-11-16T04:07:19.482Z,11.51
2022-11-16T04:08:18.402Z,11.45
2022-11-16T04:09:18.045Z,11.48
2022-11-16T04:10:18.405Z,11.49
2022-11-16T04:11:18.484Z,11.45
2022-11-16T04:12:18.624Z,11.41
2022-11-16T04:13:18.222Z,11.45
2022-11-16T04:14:17.890Z,11.45
2022-11-16T04:15:17.905Z,11.43
2022-11-16T04:16:17.892Z,11.45
2022-11-16T04:17:17.880Z,11.46
2022-11-16T04:18:18.662Z,11.49
2022-11-16T04:19:17.874Z,11.48
2022-11-16T04:20:17.876Z,11.49
2022-11-16T04:21:17.873Z,11.51
2022-11-16T04:22:17.873Z,11.51
2022-11-16T04:23:17.884Z,11.51
2022-11-16T04:24:17.889Z,11.48
2022-11-16T04:25:17.841Z,11.45
2022-11-16T04:26:17.905Z,11.48
2022-11-16T04:27:17.911Z,11.43
2022-11-16T04:28:17.913Z,11.43
2022-11-16T04:29:17.921Z,11.48
2022-11-16T04:30:17.803Z,11.46
2022-11-16T04:31:17.810Z,11.48
2022-11-16T04:33:44.048Z,11.51
2022-11-16T04:34:43.961Z,11.51
2022-11-16T04:35:44.040Z,11.52
2022-11-16T04:36:43.783Z,11.51
2022-11-16T04:37:43.763Z,11.49
2022-11-16T04:38:43.742Z,11.48
2022-11-16T04:39:43.790Z,11.51
2022-11-16T04:40:43.803Z,11.51
2022-11-16T04:41:43.880Z,11.46
2022-11-16T04:42:43.681Z,11.49
2022-11-16T04:43:43.819Z,11.49
2022-11-16T04:44:44.040Z,11.46
2022-11-16T04:45:44.053Z,11.51
2022-11-16T04:46:44.048Z,11.48
2022-11-16T04:47:43.849Z,11.49
2022-11-16T04:48:43.650Z,11.46
2022-11-16T04:49:43.694Z,11.48
2022-11-16T04:50:44.279Z,11.46
2022-11-16T04:51:43.610Z,11.46
2022-11-16T04:52:44.297Z,11.43
2022-11-16T04:53:43.891Z,11.43
2022-11-16T04:54:44.118Z,11.41
2022-11-16T04:55:43.678Z,11.40
2022-11-16T04:56:44.116Z,11.40
2022-11-16T04:57:44.330Z,11.41
2022-11-16T04:58:43.717Z,11.38
2022-11-16T04:59:43.597Z,11.37
2022-11-16T05:00:43.938Z,11.38
2022-11-16T05:01:44.237Z,11.36
2022-11-16T05:02:43.548Z,11.40
2022-11-16T05:03:43.555Z,11.40
2022-11-16T05:04:43.556Z,11.41
2022-11-16T05:05:43.567Z,11.40
2022-11-16T05:06:43.777Z,11.37
2022-11-16T05:07:43.639Z,11.37
2022-11-16T05:08:44.530Z,11.33
2022-11-16T05:09:43.499Z,11.37
2022-11-16T05:10:43.607Z,11.34
2022-11-16T05:11:43.489Z,11.34
2022-11-16T05:12:43.507Z,11.34
2022-11-16T05:13:43.508Z,11.33
2022-11-16T05:14:43.479Z,11.31
2022-11-16T05:15:43.535Z,11.36
2022-11-16T05:16:43.484Z,11.33
2022-11-16T05:17:43.456Z,11.33
2022-11-16T05:18:43.455Z,11.33
2022-11-16T05:19:43.465Z,11.31
2022-11-16T05:20:43.675Z,11.30
2022-11-16T05:21:43.474Z,11.28
2022-11-16T05:22:43.686Z,11.28
2022-11-16T05:23:43.704Z,11.27
2022-11-16T05:24:43.495Z,11.28
2022-11-16T05:25:43.703Z,11.28
2022-11-16T05:26:43.563Z,11.36
2022-11-16T05:27:43.722Z,11.30
2022-11-16T05:28:43.381Z,11.33
2022-11-16T05:29:43.543Z,11.31
2022-11-16T05:30:43.373Z,11.28
2022-11-16T05:31:43.743Z,11.31
2022-11-16T05:32:43.752Z,11.30
2022-11-16T05:33:43.342Z,11.31
2022-11-16T05:34:43.739Z,11.27
2022-11-16T05:35:43.980Z,11.28
2022-11-16T05:36:43.821Z,11.33
2022-11-16T05:37:43.993Z,11.28
2022-11-16T05:38:43.996Z,11.27
2022-11-16T05:39:44.014Z,11.25
2022-11-16T05:40:43.300Z,11.27
2022-11-16T05:41:43.814Z,11.23
2022-11-16T05:42:43.290Z,11.23
2022-11-16T05:43:43.269Z,11.23
2022-11-16T05:44:43.261Z,11.27
2022-11-16T05:45:43.428Z,11.22
2022-11-16T05:46:43.641Z,11.23
2022-11-16T05:47:43.280Z,11.25
2022-11-16T05:48:43.472Z,11.20
2022-11-16T05:49:43.870Z,11.23
2022-11-16T05:50:43.440Z,11.22
2022-11-16T05:51:44.087Z,11.20
2022-11-16T05:52:43.270Z,11.20
2022-11-16T05:53:43.279Z,11.23
2022-11-16T05:54:43.279Z,11.22
2022-11-16T05:55:43.605Z,11.19
2022-11-16T05:56:44.644Z,11.20
2022-11-16T05:57:43.170Z,11.19
2022-11-16T05:58:43.168Z,11.20
2022-11-16T05:59:43.170Z,11.22
2022-11-16T06:00:43.170Z,11.19
2022-11-16T06:01:43.149Z,11.20
2022-11-16T06:02:43.210Z,11.20
2022-11-16T06:03:43.154Z,11.19
2022-11-16T06:04:43.149Z,11.19
2022-11-16T06:05:43.159Z,11.18
2022-11-16T06:06:43.167Z,11.18
2022-11-16T06:07:43.177Z,11.19
2022-11-16T06:08:43.189Z,11.18
2022-11-16T06:09:43.198Z,11.18
2022-11-16T06:10:43.196Z,11.18
2022-11-16T06:11:43.208Z,11.19
2022-11-16T06:12:43.226Z,11.16
2022-11-16T06:13:43.253Z,11.20
2022-11-16T06:14:43.237Z,11.18
2022-11-16T06:17:09.247Z,11.19
2022-11-16T06:18:09.455Z,11.19
2022-11-16T06:19:09.467Z,11.18
2022-11-16T06:20:09.474Z,11.18
2022-11-16T06:21:09.475Z,11.20
2022-11-16T06:22:09.485Z,11.22
2022-11-16T06:23:09.497Z,11.23
2022-11-16T06:24:09.312Z,11.22
2022-11-16T06:25:09.295Z,11.23
2022-11-16T06:26:09.525Z,11.23
2022-11-16T06:27:08.954Z,11.23
2022-11-16T06:28:08.953Z,11.23
2022-11-16T06:29:09.122Z,11.20
2022-11-16T06:30:09.153Z,11.20
2022-11-16T06:31:09.134Z,11.20
2022-11-16T06:32:09.143Z,11.22
2022-11-16T06:33:08.943Z,11.25
2022-11-16T06:34:09.364Z,11.27
2022-11-16T06:35:08.984Z,11.27
2022-11-16T06:36:08.973Z,11.22
2022-11-16T06:37:08.973Z,11.27
2022-11-16T06:38:09.192Z,11.20
2022-11-16T06:39:09.196Z,11.27
2022-11-16T06:40:09.208Z,11.25
2022-11-16T06:41:09.413Z,11.25
2022-11-16T06:42:09.210Z,11.25
2022-11-16T06:43:09.042Z,11.27
2022-11-16T06:44:09.031Z,11.27
2022-11-16T06:45:09.043Z,11.30
2022-11-16T06:46:08.851Z,11.31
2022-11-16T06:47:08.861Z,11.31
2022-11-16T06:48:08.870Z,11.31
2022-11-16T06:49:08.861Z,11.31
2022-11-16T06:50:09.110Z,11.30
2022-11-16T06:51:08.860Z,11.30
2022-11-16T06:52:08.873Z,11.31
2022-11-16T06:53:08.871Z,11.31
2022-11-16T06:54:08.889Z,11.31
2022-11-16T06:55:08.756Z,11.31
2022-11-16T06:56:10.428Z,11.30
2022-11-16T06:57:08.900Z,11.30
2022-11-16T06:58:08.810Z,11.33
2022-11-16T06:59:08.729Z,11.31
2022-11-16T07:00:08.726Z,11.31
2022-11-16T07:01:08.939Z,11.33
2022-11-16T07:02:08.822Z,11.33
2022-11-16T07:03:08.747Z,11.34
2022-11-16T07:04:08.708Z,11.33
2022-11-16T07:05:08.761Z,11.33
2022-11-16T07:06:08.897Z,11.34
2022-11-16T07:07:09.020Z,11.34
2022-11-16T07:08:08.675Z,11.33
2022-11-16T07:09:08.997Z,11.33
2022-11-16T07:10:09.018Z,11.33
2022-11-16T07:11:09.006Z,11.34
2022-11-16T07:12:09.111Z,11.37
2022-11-16T07:13:09.016Z,11.40
2022-11-16T07:14:08.814Z,11.40
2022-11-16T07:15:08.635Z,11.40
2022-11-16T07:16:08.627Z,11.37
2022-11-16T07:17:09.778Z,11.38
2022-11-16T07:18:08.616Z,11.41
2022-11-16T07:19:08.608Z,11.41
2022-11-16T07:20:08.606Z,11.45
2022-11-16T07:21:08.623Z,11.43
2022-11-16T07:22:08.643Z,11.43
2022-11-16T07:23:13.860Z,11.43
2022-11-16T07:24:08.661Z,11.41
2022-11-16T07:25:08.675Z,11.46
2022-11-16T07:26:08.552Z,11.49
2022-11-16T07:27:08.707Z,11.51
2022-11-16T07:28:08.832Z,11.51
2022-11-16T07:29:08.531Z,11.52
2022-11-16T07:30:08.524Z,11.55
2022-11-16T07:31:08.517Z,11.56
2022-11-16T07:32:08.536Z,11.56
2022-11-16T07:33:08.773Z,11.54
2022-11-16T07:34:08.782Z,11.55
2022-11-16T07:35:08.493Z,11.61
2022-11-16T07:36:08.483Z,11.59
2022-11-16T07:37:08.822Z,11.64
2022-11-16T07:38:08.841Z,11.66
2022-11-16T07:39:08.863Z,11.69
2022-11-16T07:40:08.781Z,11.70
2022-11-16T07:41:08.480Z,11.69
2022-11-16T07:42:08.591Z,11.67
2022-11-16T07:43:08.431Z,11.69
2022-11-16T07:44:11.929Z,11.70
2022-11-16T07:45:08.621Z,11.73
2022-11-16T07:46:44.767Z,11.71
2022-11-16T07:47:08.700Z,11.73
2022-11-16T07:48:08.649Z,11.74
2022-11-16T07:49:11.547Z,11.73
2022-11-16T07:50:08.862Z,11.71
2022-11-16T07:51:08.859Z,11.73
2022-11-16T07:52:08.398Z,11.76
2022-11-16T07:53:08.506Z,11.76
2022-11-16T07:54:08.669Z,11.79
2022-11-16T07:55:09.099Z,11.76
2022-11-16T07:56:09.110Z,11.77
2022-11-16T07:57:09.150Z,11.82
2022-11-16T07:58:08.358Z,11.82
2022-11-16T07:59:09.127Z,11.82
2022-11-16T08:00:08.337Z,11.80
2022-11-16T08:01:09.129Z,11.85
2022-11-16T08:02:08.380Z,11.85
2022-11-16T08:04:19.808Z,11.91
2022-11-16T08:05:19.816Z,11.95
2022-11-16T08:06:19.518Z,11.93
2022-11-16T08:07:19.851Z,11.97
2022-11-16T08:08:19.867Z,11.95
2022-11-16T08:09:19.845Z,11.97
2022-11-16T08:10:19.869Z,11.97
2022-11-16T08:11:19.466Z,11.96
2022-11-16T08:12:19.476Z,11.97
2022-11-16T08:13:19.466Z,11.96
2022-11-16T08:14:19.468Z,12.03
2022-11-16T08:15:19.475Z,12.00
2022-11-16T08:16:19.485Z,12.05
2022-11-16T08:17:19.487Z,12.04
2022-11-16T08:18:19.420Z,12.10
2022-11-16T08:19:19.415Z,12.11
2022-11-16T08:20:19.406Z,12.17
2022-11-16T08:21:20.699Z,12.18
2022-11-16T08:22:19.424Z,12.23
2022-11-16T08:23:19.384Z,12.26
2022-11-16T08:24:19.465Z,12.18
2022-11-16T08:25:19.477Z,12.18
2022-11-16T08:26:19.493Z,12.23
2022-11-16T08:27:19.502Z,12.25
2022-11-16T08:28:19.503Z,12.30
2022-11-16T08:29:19.524Z,12.29
2022-11-16T08:30:19.353Z,12.32
2022-11-16T08:31:19.542Z,12.40
2022-11-16T08:32:19.365Z,12.36
2022-11-16T08:33:19.372Z,12.38
2022-11-16T08:34:19.302Z,12.40
2022-11-16T08:35:19.604Z,12.40
2022-11-16T08:36:19.407Z,12.41
2022-11-16T08:37:19.311Z,12.41
2022-11-16T08:38:19.410Z,12.44
2022-11-16T08:39:19.411Z,12.43
2022-11-16T08:40:19.441Z,12.47
2022-11-16T08:41:19.404Z,12.48
2022-11-16T08:42:19.491Z,12.50
2022-11-16T08:43:19.649Z,12.47
2022-11-16T08:44:19.668Z,12.48
2022-11-16T08:45:19.671Z,12.50
2022-11-16T08:46:19.660Z,12.51
2022-11-16T08:47:19.691Z,12.59
2022-11-16T08:48:19.779Z,12.58
2022-11-16T08:49:19.290Z,12.59
2022-11-16T08:50:19.270Z,12.59
2022-11-16T08:51:20.389Z,12.63
2022-11-16T08:52:19.324Z,12.59
2022-11-16T08:53:19.499Z,12.62
2022-11-16T08:54:19.509Z,12.65
2022-11-16T08:55:19.158Z,12.65
2022-11-16T08:56:19.139Z,12.66
2022-11-16T08:57:19.742Z,12.68
2022-11-16T08:58:19.338Z,12.69
2022-11-16T08:59:19.339Z,12.65
2022-11-16T09:00:19.128Z,12.65
2022-11-16T09:01:19.261Z,12.65
2022-11-16T09:02:19.128Z,12.59
2022-11-16T09:03:19.387Z,12.58
2022-11-16T09:04:19.380Z,12.58
2022-11-16T09:05:19.167Z,12.58
2022-11-16T09:06:19.176Z,12.58
2022-11-16T09:07:19.448Z,12.58
2022-11-16T09:08:19.976Z,12.54
2022-11-16T09:09:19.396Z,12.47
2022-11-16T09:10:19.667Z,12.51
2022-11-16T09:11:19.826Z,12.47
2022-11-16T09:12:19.036Z,12.51
2022-11-16T09:13:19.366Z,12.48
2022-11-16T09:14:19.027Z,12.53
2022-11-16T09:15:19.043Z,12.50
2022-11-16T09:16:19.038Z,12.48
2022-11-16T09:17:23.133Z,12.48
2022-11-16T09:18:19.257Z,12.43
2022-11-16T09:19:19.084Z,12.43
2022-11-16T09:20:19.086Z,12.44
2022-11-16T09:21:19.125Z,12.43
2022-11-16T09:22:19.075Z,12.46
2022-11-16T09:23:24.913Z,12.46
2022-11-16T09:24:19.319Z,12.46
2022-11-16T09:25:19.023Z,12.51
2022-11-16T09:26:19.353Z,12.55
2022-11-16T09:27:19.574Z,12.61
2022-11-16T09:28:19.321Z,12.62
2022-11-16T09:29:18.926Z,12.62
2022-11-16T09:30:19.143Z,12.62
2022-11-16T09:31:23.363Z,12.63
2022-11-16T09:32:19.812Z,12.59
2022-11-16T09:33:18.976Z,12.55
2022-11-16T09:34:19.563Z,12.55
2022-11-16T09:35:19.002Z,12.55
2022-11-16T09:36:19.215Z,12.62
2022-11-16T09:37:18.862Z,12.66
2022-11-16T09:38:30.423Z,12.63
2022-11-16T09:39:30.563Z,12.68
2022-11-16T09:40:19.701Z,12.68
2022-11-16T09:41:19.024Z,12.69
2022-11-16T09:42:19.009Z,12.63
2022-11-16T09:43:18.872Z,12.58
2022-11-16T09:44:19.420Z,12.58
2022-11-16T09:45:19.634Z,12.51
2022-11-16T09:46:19.031Z,12.54
2022-11-16T09:47:19.081Z,12.46
2022-11-16T09:48:18.880Z,12.47
2022-11-16T09:49:19.282Z,12.40
2022-11-16T09:50:18.843Z,12.38
2022-11-16T09:51:19.309Z,12.38
2022-11-16T09:52:18.771Z,12.36
2022-11-16T09:53:18.870Z,12.35
2022-11-16T09:54:18.869Z,12.35
2022-11-16T09:55:18.928Z,12.38
2022-11-16T09:56:22.053Z,12.32
2022-11-16T09:57:18.889Z,12.32
2022-11-16T09:58:18.748Z,12.35
2022-11-16T09:59:19.117Z,12.40
2022-11-16T10:00:19.169Z,12.40
2022-11-16T10:01:18.746Z,12.44
2022-11-16T10:02:19.346Z,12.47
2022-11-16T10:03:19.338Z,12.48
2022-11-16T10:04:18.728Z,12.50
2022-11-16T10:05:19.149Z,12.54
2022-11-16T10:06:18.997Z,12.55
2022-11-16T10:07:19.618Z,12.54
2022-11-16T10:08:19.089Z,12.59
2022-11-16T10:09:18.706Z,12.59
2022-11-16T10:10:19.594Z,12.65
2022-11-16T10:11:18.647Z,12.86
2022-11-16T10:12:18.629Z,12.90
2022-11-16T10:13:18.662Z,12.95
2022-11-16T10:14:18.637Z,13.04
2022-11-16T10:15:18.616Z,13.16
2022-11-16T10:16:18.614Z,13.14
2022-11-16T10:17:18.640Z,13.16
2022-11-16T10:18:18.618Z,13.16
2022-11-16T10:19:18.633Z,13.14
2022-11-16T10:20:18.636Z,13.14
2022-11-16T10:21:18.646Z,13.16
2022-11-16T10:22:18.647Z,13.17
2022-11-16T10:23:18.656Z,13.17
2022-11-16T10:24:18.577Z,13.27
2022-11-16T10:25:18.559Z,13.42
2022-11-16T10:26:18.534Z,13.47
2022-11-16T10:27:21.964Z,13.47
2022-11-16T10:28:18.546Z,13.67
2022-11-16T10:29:18.824Z,13.96
2022-11-16T10:30:18.704Z,14.23
2022-11-16T10:31:18.495Z,14.38
2022-11-16T10:32:18.505Z,14.67
2022-11-16T10:33:18.698Z,14.93
2022-11-16T10:34:18.725Z,15.07
2022-11-16T10:35:18.724Z,15.20
2022-11-16T10:36:18.993Z,15.17
2022-11-16T10:37:18.803Z,15.11
2022-11-16T10:38:18.623Z,15.08
2022-11-16T10:39:18.602Z,14.87
2022-11-16T10:40:18.826Z,14.31
2022-11-16T10:41:18.622Z,14.03
2022-11-16T10:42:18.841Z,13.94
2022-11-16T10:43:18.843Z,14.03
2022-11-16T10:44:18.853Z,13.93
2022-11-16T10:45:18.407Z,14.09
2022-11-16T10:46:18.871Z,14.36
2022-11-16T10:47:18.875Z,14.56
2022-11-16T10:48:19.023Z,14.71
2022-11-16T10:49:18.630Z,14.73
2022-11-16T10:50:18.704Z,14.55
2022-11-16T10:51:18.595Z,14.40
2022-11-16T10:52:19.057Z,14.34
2022-11-16T10:53:19.057Z,14.33
2022-11-16T10:54:19.062Z,14.26
2022-11-16T10:55:18.720Z,14.16
2022-11-16T10:56:18.321Z,13.98
2022-11-16T10:57:19.080Z,13.97
2022-11-16T10:58:18.792Z,13.98
2022-11-16T10:59:18.458Z,14.08
2022-11-16T11:00:22.232Z,14.11
2022-11-16T11:01:18.323Z,14.04
2022-11-16T11:02:18.490Z,14.01
2022-11-16T11:03:18.300Z,13.94
2022-11-16T11:04:18.319Z,13.90
2022-11-16T11:05:18.342Z,13.90
2022-11-16T11:06:19.759Z,13.88
2022-11-16T11:07:18.376Z,13.93
2022-11-16T11:08:18.342Z,13.90
2022-11-16T11:09:18.677Z,13.90
2022-11-16T11:10:18.268Z,13.80
2022-11-16T11:11:18.368Z,13.63
2022-11-16T11:12:18.359Z,13.46
2022-11-16T11:13:18.359Z,13.35
2022-11-16T11:14:18.369Z,13.32
2022-11-16T11:15:24.275Z,13.29
2022-11-16T11:16:18.308Z,13.20
2022-11-16T11:17:18.389Z,13.13
2022-11-16T11:18:18.188Z,13.06
2022-11-16T11:19:18.549Z,12.99
2022-11-16T11:20:18.488Z,12.98
2022-11-16T11:21:18.429Z,12.87
2022-11-16T11:22:18.343Z,12.88
2022-11-16T11:23:18.435Z,12.83
2022-11-16T11:24:43.510Z,12.83
2022-11-16T11:25:18.121Z,12.83
2022-11-16T11:26:18.116Z,12.83
2022-11-16T11:27:18.326Z,12.90
2022-11-16T11:28:18.536Z,12.96
2022-11-16T11:29:18.587Z,13.01
2022-11-16T11:30:18.087Z,13.05
2022-11-16T11:31:18.165Z,13.06
2022-11-16T11:32:23.789Z,13.11
2022-11-16T11:33:18.346Z,13.16
2022-11-16T11:34:18.577Z,13.17
2022-11-16T11:35:18.605Z,13.27
2022-11-16T11:36:18.075Z,13.35
2022-11-16T11:37:18.726Z,13.38
2022-11-16T11:38:18.745Z,13.42
2022-11-16T11:39:18.094Z,13.46
2022-11-16T11:40:18.033Z,13.47
2022-11-16T11:41:18.134Z,13.49
2022-11-16T11:42:18.146Z,13.45
2022-11-16T11:43:19.013Z,13.46
2022-11-16T11:44:18.234Z,13.47
2022-11-16T11:45:18.407Z,13.49
2022-11-16T11:46:18.384Z,13.53
2022-11-16T11:47:55.538Z,13.53
2022-11-16T11:48:18.005Z,13.49
2022-11-16T11:49:18.084Z,13.40
2022-11-16T11:50:18.193Z,13.30
2022-11-16T11:51:18.020Z,13.29
2022-11-16T11:52:18.016Z,13.27
2022-11-16T11:53:18.213Z,13.21
2022-11-16T11:54:18.015Z,13.19
2022-11-16T11:55:18.021Z,13.20
2022-11-16T11:56:18.543Z,13.20
2022-11-16T11:57:17.933Z,13.20
2022-11-16T11:58:17.942Z,13.16
2022-11-16T11:59:17.892Z,13.09
2022-11-16T12:00:17.933Z,13.08
2022-11-16T12:01:23.768Z,13.05
2022-11-16T12:02:17.872Z,13.05
2022-11-16T12:03:17.959Z,13.04
2022-11-16T12:04:17.870Z,13.04
2022-11-16T12:05:17.885Z,13.01
2022-11-16T12:06:17.921Z,13.01
2022-11-16T12:07:17.922Z,13.02
2022-11-16T12:08:17.861Z,13.08
2022-11-16T12:09:17.901Z,13.16
2022-11-16T12:10:17.912Z,13.17
2022-11-16T12:11:17.919Z,13.17
2022-11-16T12:12:17.820Z,13.20
2022-11-16T12:13:17.833Z,13.19
2022-11-16T12:14:17.830Z,13.23
2022-11-16T12:15:18.042Z,13.24
2022-11-16T12:16:17.848Z,13.26
2022-11-16T12:17:17.857Z,13.29
2022-11-16T12:18:17.971Z,13.30
2022-11-16T12:19:17.765Z,13.35
2022-11-16T12:20:17.979Z,13.35
2022-11-16T12:21:17.789Z,13.36
2022-11-16T12:22:17.875Z,13.36
2022-11-16T12:23:17.719Z,13.42
2022-11-16T12:24:17.717Z,13.39
2022-11-16T12:25:18.107Z,13.40
2022-11-16T12:26:17.708Z,13.39
2022-11-16T12:27:17.697Z,13.39
2022-11-16T12:28:17.696Z,13.40
2022-11-16T12:29:17.727Z,13.36
2022-11-16T12:30:17.736Z,13.36
2022-11-16T12:31:17.736Z,13.39
2022-11-16T12:32:17.670Z,13.39
2022-11-16T12:33:17.646Z,13.42
2022-11-16T12:34:17.677Z,13.42
2022-11-16T12:35:17.691Z,13.42
2022-11-16T12:36:17.671Z,13.46
2022-11-16T12:37:17.716Z,13.46
2022-11-16T12:38:21.768Z,13.51
2022-11-16T12:39:17.776Z,13.46
2022-11-16T12:40:17.755Z,13.49
2022-11-16T12:41:17.765Z,13.54
2022-11-16T12:42:17.705Z,13.55
2022-11-16T12:43:17.795Z,13.55
2022-11-16T12:44:17.638Z,13.57
2022-11-16T12:45:17.839Z,13.65
2022-11-16T12:46:17.752Z,13.64
2022-11-16T12:47:17.846Z,13.65
2022-11-16T12:48:17.555Z,13.71
2022-11-16T12:49:17.864Z,13.76
2022-11-16T12:50:17.588Z,13.75
2022-11-16T12:51:17.582Z,13.80
2022-11-16T12:52:17.556Z,13.78
2022-11-16T12:53:17.574Z,13.78
2022-11-16T12:54:17.709Z,13.80
2022-11-16T12:55:26.713Z,13.85
2022-11-16T12:56:17.724Z,13.85
2022-11-16T12:57:17.511Z,13.93
2022-11-16T12:58:17.521Z,13.93